createdAt,value
2023-12-11T00:01:35.159Z,99540.47
2023-12-11T00:04:02.067Z,99538.91
2023-12-11T00:06:28.862Z,99536.41
2023-12-11T00:08:55.992Z,99525.34
2023-12-11T00:11:23.863Z,99520.31
2023-12-11T00:13:50.812Z,99517.91
2023-12-11T00:16:18.659Z,99524.56
2023-12-11T00:18:46.027Z,99524.09
2023-12-11T00:21:12.934Z,99513.91
2023-12-11T00:23:39.808Z,99530.84
2023-12-11T00:26:06.679Z,99524.97
2023-12-11T00:28:33.387Z,99514.88
2023-12-11T00:31:00.876Z,99510.63
2023-12-11T00:33:27.834Z,99503.94
2023-12-11T00:35:54.650Z,99495.41
2023-12-11T00:38:21.369Z,99495.53
2023-12-11T00:40:48.069Z,99494.75
2023-12-11T00:43:14.877Z,99482.06
2023-12-11T00:45:41.760Z,99487.38
2023-12-11T00:48:08.568Z,99490.66
2023-12-11T00:50:35.325Z,99491.56
2023-12-11T00:53:02.147Z,99490.56
2023-12-11T00:55:28.823Z,99487.97
2023-12-11T00:57:55.572Z,99498.41
2023-12-11T01:00:22.337Z,99486.50
2023-12-11T01:02:49.037Z,99480.78
2023-12-11T01:05:15.959Z,99468.19
2023-12-11T01:07:42.725Z,99467.31
2023-12-11T01:10:10.538Z,99467.44
2023-12-11T01:12:38.138Z,99467.31
2023-12-11T01:15:05.281Z,99471.56
2023-12-11T01:17:39.002Z,99475.66
2023-12-11T01:20:09.036Z,99472.47
2023-12-11T01:22:36.083Z,99474.78
2023-12-11T01:25:04.265Z,99478.97
2023-12-11T01:27:32.015Z,99478.97
2023-12-11T01:29:59.031Z,99482.34
2023-12-11T01:32:25.844Z,99485.72
2023-12-11T01:34:52.722Z,99471.41
2023-12-11T01:37:20.060Z,99477.59
2023-12-11T01:39:46.808Z,99480.03
2023-12-11T01:42:14.859Z,99474.78
2023-12-11T01:44:41.595Z,99466.25
2023-12-11T01:47:08.359Z,99476.53
2023-12-11T01:49:37.136Z,99461.22
2023-12-11T01:52:04.841Z,99458.72
2023-12-11T01:54:32.166Z,99464.53
2023-12-11T01:56:58.992Z,99458.97
2023-12-11T01:59:25.945Z,99464.00
2023-12-11T02:01:53.244Z,99455.72
2023-12-11T02:04:20.409Z,99447.16
2023-12-11T02:06:47.462Z,99444.47
2023-12-11T02:09:14.341Z,99429.94
2023-12-11T02:11:42.626Z,99423.38
2023-12-11T02:14:10.528Z,99420.06
2023-12-11T02:16:37.233Z,99434.13
2023-12-11T02:19:04.139Z,99434.84
2023-12-11T02:21:30.944Z,99444.78
2023-12-11T02:24:04.028Z,99456.44
2023-12-11T02:26:30.765Z,99456.44
2023-12-11T02:28:57.494Z,99457.19
2023-12-11T02:31:24.212Z,99447.91
2023-12-11T02:33:51.121Z,99446.38
2023-12-11T02:36:17.914Z,99453.13
2023-12-11T02:38:44.740Z,99447.91
2023-12-11T02:41:11.494Z,99457.03
2023-12-11T02:43:38.329Z,99459.63
2023-12-11T02:46:05.296Z,99452.16
2023-12-11T02:48:32.612Z,99462.22
2023-12-11T02:50:59.588Z,99455.53
2023-12-11T02:53:26.380Z,99457.97
2023-12-11T02:55:53.064Z,99458.94
2023-12-11T02:58:19.891Z,99466.31
2023-12-11T03:00:46.739Z,99464.66
2023-12-11T03:03:13.540Z,99461.88
2023-12-11T03:05:40.253Z,99459.44
2023-12-11T03:08:07.225Z,99461.66
2023-12-11T03:10:34.746Z,99462.66
2023-12-11T03:13:02.228Z,99461.66
2023-12-11T03:15:31.268Z,99457.50
2023-12-11T03:17:58.152Z,99444.66
2023-12-11T03:20:25.052Z,99441.53
2023-12-11T03:22:51.888Z,99429.94
2023-12-11T03:25:18.730Z,99420.72
2023-12-11T03:27:45.521Z,99427.50
2023-12-11T03:30:12.319Z,99425.06
2023-12-11T03:32:39.261Z,99422.47
2023-12-11T03:35:06.458Z,99434.25
2023-12-11T03:37:33.351Z,99424.91
2023-12-11T03:40:00.155Z,99428.16
2023-12-11T03:42:26.928Z,99423.13
2023-12-11T03:44:55.298Z,99422.19
2023-12-11T03:47:22.842Z,99416.38
2023-12-11T03:49:49.605Z,99412.78
2023-12-11T03:52:16.494Z,99411.34
2023-12-11T03:54:43.279Z,99404.56
2023-12-11T03:57:10.013Z,99407.84
2023-12-11T03:59:37.502Z,99399.34
2023-12-11T04:02:04.725Z,99411.25
2023-12-11T04:04:31.771Z,99407.56
2023-12-11T04:06:58.718Z,99406.44
2023-12-11T04:09:25.451Z,99412.06
2023-12-11T04:11:52.130Z,99405.88
2023-12-11T04:14:18.897Z,99413.31
2023-12-11T04:16:45.646Z,99412.66
2023-12-11T04:19:13.392Z,99413.31
2023-12-11T04:21:40.415Z,99414.03
2023-12-11T04:24:07.166Z,99407.75
2023-12-11T04:26:33.884Z,99409.47
2023-12-11T04:29:00.653Z,99406.16
2023-12-11T04:31:27.386Z,99409.28
2023-12-11T04:33:54.213Z,99405.81
2023-12-11T04:36:21.211Z,99401.44
2023-12-11T04:38:47.890Z,99405.03
2023-12-11T04:41:14.617Z,99396.63
2023-12-11T04:43:41.365Z,99401.72
2023-12-11T04:46:08.085Z,99387.41
2023-12-11T04:48:34.975Z,99391.50
2023-12-11T04:51:01.784Z,99378.94
2023-12-11T04:53:28.484Z,99379.09
2023-12-11T04:55:55.289Z,99372.53
2023-12-11T04:58:22.143Z,99368.09
2023-12-11T05:00:49.032Z,99370.59
2023-12-11T05:03:15.862Z,99364.69
2023-12-11T05:05:42.670Z,99361.41
2023-12-11T05:08:09.356Z,99374.84
2023-12-11T05:10:36.046Z,99372.53
2023-12-11T05:13:02.869Z,99375.81
2023-12-11T05:15:29.707Z,99367.50
2023-12-11T05:17:56.502Z,99367.28
2023-12-11T05:20:23.363Z,99369.03
2023-12-11T05:22:50.085Z,99375.81
2023-12-11T05:25:16.883Z,99369.81
2023-12-11T05:27:43.632Z,99373.19
2023-12-11T05:30:10.634Z,99381.59
2023-12-11T05:32:38.306Z,99365.75
2023-12-11T05:35:05.701Z,99370.78
2023-12-11T05:37:32.797Z,99368.28
2023-12-11T05:40:20.726Z,99362.94
2023-12-11T05:42:46.311Z,99361.41
2023-12-11T05:45:13.256Z,99362.94
2023-12-11T05:47:40.050Z,99363.84
2023-12-11T05:50:07.184Z,99369.03
2023-12-11T05:52:33.956Z,99367.28
2023-12-11T05:55:00.735Z,99369.81
2023-12-11T05:57:27.772Z,99363.31
2023-12-11T05:59:54.600Z,99358.38
2023-12-11T06:02:21.334Z,99364.97
2023-12-11T06:04:48.114Z,99357.31
2023-12-11T06:07:14.816Z,99376.69
2023-12-11T06:09:41.704Z,99369.88
2023-12-11T06:12:10.134Z,99363.84
2023-12-11T06:14:40.747Z,99365.75
2023-12-11T06:17:07.587Z,99359.66
2023-12-11T06:19:34.437Z,99346.69
2023-12-11T06:22:01.203Z,99358.59
2023-12-11T06:24:28.012Z,99365.38
2023-12-11T06:26:55.076Z,99381.06
2023-12-11T06:29:21.839Z,99380.06
2023-12-11T06:31:48.526Z,99384.94
2023-12-11T06:34:15.324Z,99385.09
2023-12-11T06:36:42.182Z,99393.53
2023-12-11T06:39:08.922Z,99393.44
2023-12-11T06:41:38.802Z,99390.84
2023-12-11T06:44:05.726Z,99391.69
2023-12-11T06:46:32.434Z,99387.53
2023-12-11T06:48:59.749Z,99399.31
2023-12-11T06:51:26.775Z,99389.38
2023-12-11T06:53:59.808Z,99392.09
2023-12-11T06:56:32.174Z,99384.44
2023-12-11T06:58:59.593Z,99383.56
2023-12-11T07:01:34.958Z,99385.81
2023-12-11T07:04:02.835Z,99390.25
2023-12-11T07:06:29.763Z,99385.09
2023-12-11T07:08:57.488Z,99384.94
2023-12-11T07:11:25.610Z,99380.84
2023-12-11T07:13:53.920Z,99383.47
2023-12-11T07:16:20.896Z,99386.00
2023-12-11T07:18:48.181Z,99387.06
2023-12-11T07:21:15.130Z,99391.38
2023-12-11T07:23:41.927Z,99384.03
2023-12-11T07:26:10.427Z,99373.78
2023-12-11T07:28:38.084Z,99367.50
2023-12-11T07:31:06.906Z,99375.38
2023-12-11T07:33:34.403Z,99366.50
2023-12-11T07:36:01.280Z,99373.44
2023-12-11T07:38:28.116Z,99372.84
2023-12-11T07:40:56.609Z,99363.72
2023-12-11T07:43:23.494Z,99350.75
2023-12-11T07:45:51.135Z,99345.50
2023-12-11T07:48:18.096Z,99352.56
2023-12-11T07:50:44.985Z,99358.47
2023-12-11T07:53:11.773Z,99357.09
2023-12-11T07:55:38.506Z,99358.06
2023-12-11T07:58:05.433Z,99352.31
2023-12-11T08:00:32.463Z,99357.47
2023-12-11T08:02:59.557Z,99351.31
2023-12-11T08:05:26.487Z,99356.50
2023-12-11T08:07:53.380Z,99349.91
2023-12-11T08:10:20.438Z,99354.34
2023-12-11T08:12:53.793Z,99353.47
2023-12-11T08:15:20.902Z,99350.59
2023-12-11T08:17:47.851Z,99356.50
2023-12-11T08:20:18.472Z,99358.84
2023-12-11T08:22:45.855Z,99355.56
2023-12-11T08:25:14.836Z,99348.69
2023-12-11T08:27:43.637Z,99344.69
2023-12-11T08:30:11.615Z,99347.13
2023-12-11T08:32:40.570Z,99342.59
2023-12-11T08:35:08.494Z,99346.88
2023-12-11T08:37:35.631Z,99342.69
2023-12-11T08:40:05.119Z,99348.41
2023-12-11T08:42:39.259Z,99341.66
2023-12-11T08:45:09.009Z,99335.44
2023-12-11T08:47:39.104Z,99338.41
2023-12-11T08:50:08.327Z,99329.69
2023-12-11T08:52:37.046Z,99331.47
2023-12-11T08:55:04.196Z,99332.63
2023-12-11T08:57:31.192Z,99328.97
2023-12-11T08:59:58.860Z,99322.09
2023-12-11T09:02:25.944Z,99335.56
2023-12-11T09:04:52.787Z,99346.13
2023-12-11T09:07:19.760Z,99326.50
2023-12-11T09:09:47.055Z,99328.75
2023-12-11T09:12:23.276Z,99337.44
2023-12-11T09:14:57.796Z,99344.00
2023-12-11T09:17:24.618Z,99333.94
2023-12-11T09:19:55.270Z,99334.53
2023-12-11T09:22:24.159Z,99330.09
2023-12-11T09:24:51.570Z,99321.88
2023-12-11T09:27:18.387Z,99317.25
2023-12-11T09:29:45.280Z,99320.91
2023-12-11T09:32:12.006Z,99308.31
2023-12-11T09:34:38.980Z,99309.50
2023-12-11T09:37:05.907Z,99318.50
2023-12-11T09:39:32.630Z,99313.47
2023-12-11T09:42:00.607Z,99313.94
2023-12-11T09:44:28.569Z,99309.69
2023-12-11T09:47:01.905Z,99304.47
2023-12-11T09:49:29.807Z,99322.06
2023-12-11T09:51:56.822Z,99301.00
2023-12-11T09:54:24.345Z,99297.53
2023-12-11T09:56:51.222Z,99301.41
2023-12-11T09:59:18.733Z,99286.84
2023-12-11T10:01:48.188Z,99299.50
2023-12-11T10:04:15.348Z,99301.03
2023-12-11T10:06:42.273Z,99281.63
2023-12-11T10:09:09.008Z,99291.16
2023-12-11T10:11:36.021Z,99289.63
2023-12-11T10:14:13.245Z,99286.72
2023-12-11T10:16:40.167Z,99286.38
2023-12-11T10:19:07.071Z,99277.06
2023-12-11T10:21:39.961Z,99272.81
2023-12-11T10:24:17.729Z,99265.28
2023-12-11T10:26:54.464Z,99265.09
2023-12-11T10:29:23.041Z,99254.16
2023-12-11T10:31:53.685Z,99246.91
2023-12-11T10:34:39.924Z,99242.06
2023-12-11T10:37:06.733Z,99245.56
2023-12-11T10:39:33.871Z,99251.56
2023-12-11T10:42:14.673Z,99247.31
2023-12-11T10:44:47.277Z,99241.91
2023-12-11T10:47:20.377Z,99254.50
2023-12-11T10:49:47.213Z,99237.28
2023-12-11T10:52:14.172Z,99244.91
2023-12-11T10:54:43.952Z,99240.00
2023-12-11T10:57:18.262Z,99237.38
2023-12-11T10:59:45.863Z,99232.34
2023-12-11T11:02:19.032Z,99231.75
2023-12-11T11:04:47.788Z,99234.28
2023-12-11T11:07:27.842Z,99233.25
2023-12-11T11:10:10.508Z,99237.47
2023-12-11T11:12:55.764Z,99232.34
2023-12-11T11:15:26.455Z,99218.44
2023-12-11T11:18:06.640Z,99217.25
2023-12-11T11:20:35.492Z,99210.59
2023-12-11T11:23:18.070Z,99214.63
2023-12-11T11:25:55.852Z,99210.78
2023-12-11T11:28:42.746Z,99219.25
2023-12-11T11:31:19.361Z,99219.25
2023-12-11T11:33:54.296Z,99221.78
2023-12-11T11:36:22.846Z,99215.09
2023-12-11T11:38:59.945Z,99201.84
2023-12-11T11:41:33.629Z,99199.88
2023-12-11T11:44:02.140Z,99204.16
2023-12-11T11:46:49.622Z,99190.19
2023-12-11T11:49:36.436Z,99197.38
2023-12-11T11:52:07.835Z,99201.91
2023-12-11T11:54:38.736Z,99195.22
2023-12-11T11:57:06.007Z,99194.09
2023-12-11T11:59:42.159Z,99208.31
2023-12-11T12:02:08.900Z,99214.03
2023-12-11T12:04:36.644Z,99219.91
2023-12-11T12:07:06.225Z,99213.16
2023-12-11T12:09:34.673Z,99221.28
2023-12-11T12:12:02.445Z,99213.09
2023-12-11T12:14:29.483Z,99206.03
2023-12-11T12:16:56.649Z,99201.44
2023-12-11T12:19:31.884Z,99189.38
2023-12-11T12:22:00.090Z,99202.56
2023-12-11T12:24:27.264Z,99190.97
2023-12-11T12:27:02.578Z,99195.41
2023-12-11T12:29:33.556Z,99188.72
2023-12-11T12:32:00.982Z,99189.97
2023-12-11T12:34:30.415Z,99195.16
2023-12-11T12:36:58.661Z,99187.94
2023-12-11T12:39:25.574Z,99184.75
2023-12-11T12:41:54.744Z,99203.22
2023-12-11T12:44:22.483Z,99214.94
2023-12-11T12:46:49.352Z,99218.97
2023-12-11T12:49:18.047Z,99219.59
2023-12-11T12:51:48.719Z,99211.44
2023-12-11T12:54:19.869Z,99211.28
2023-12-11T12:56:56.866Z,99203.75
2023-12-11T12:59:24.439Z,99196.19
2023-12-11T13:01:51.328Z,99193.56
2023-12-11T13:04:18.219Z,99188.06
2023-12-11T13:06:46.569Z,99197.34
2023-12-11T13:09:30.309Z,99193.84
2023-12-11T13:11:57.175Z,99183.03
2023-12-11T13:14:26.829Z,99193.84
2023-12-11T13:16:54.595Z,99185.44
2023-12-11T13:19:21.544Z,99184.56
2023-12-11T13:21:48.282Z,99180.41
2023-12-11T13:24:15.267Z,99188.94
2023-12-11T13:26:42.379Z,99196.28
2023-12-11T13:29:09.071Z,99198.78
2023-12-11T13:31:36.490Z,99198.72
2023-12-11T13:34:03.659Z,99206.81
2023-12-11T13:36:30.399Z,99202.56
2023-12-11T13:38:57.075Z,99204.16
2023-12-11T13:41:23.802Z,99200.84
2023-12-11T13:43:50.462Z,99201.53
2023-12-11T13:46:17.197Z,99198.94
2023-12-11T13:48:45.060Z,99197.22
2023-12-11T13:51:12.028Z,99201.25
2023-12-11T13:53:38.773Z,99196.41
2023-12-11T13:56:06.165Z,99189.09
2023-12-11T13:58:33.611Z,99189.97
2023-12-11T14:01:01.859Z,99198.22
2023-12-11T14:03:28.809Z,99194.72
2023-12-11T14:05:55.625Z,99193.00
2023-12-11T14:08:22.421Z,99185.63
2023-12-11T14:10:49.227Z,99178.97
2023-12-11T14:13:15.998Z,99179.63
2023-12-11T14:15:44.030Z,99178.09
2023-12-11T14:18:11.997Z,99176.34
2023-12-11T14:20:39.209Z,99178.09
2023-12-11T14:23:05.941Z,99170.44
2023-12-11T14:25:33.528Z,99169.59
2023-12-11T14:28:05.198Z,99172.38
2023-12-11T14:30:39.249Z,99182.63
2023-12-11T14:33:06.806Z,99176.53
2023-12-11T14:35:34.439Z,99162.31
2023-12-11T14:38:01.294Z,99153.91
2023-12-11T14:40:28.121Z,99152.97
2023-12-11T14:42:54.920Z,99150.53
2023-12-11T14:45:21.691Z,99157.13
2023-12-11T14:47:48.547Z,99153.03
2023-12-11T14:50:15.577Z,99149.66
2023-12-11T14:52:43.095Z,99146.38
2023-12-11T14:55:10.036Z,99148.69
2023-12-11T14:57:38.060Z,99147.75
2023-12-11T15:00:06.903Z,99132.47
2023-12-11T15:02:34.235Z,99135.25
2023-12-11T15:05:01.338Z,99125.13
2023-12-11T15:07:29.034Z,99134.22
2023-12-11T15:09:56.260Z,99130.94
2023-12-11T15:12:24.094Z,99122.44
2023-12-11T15:14:51.498Z,99127.66
2023-12-11T15:17:18.371Z,99131.81
2023-12-11T15:19:46.542Z,99131.03
2023-12-11T15:22:14.019Z,99132.47
2023-12-11T15:24:40.904Z,99144.19
2023-12-11T15:27:08.224Z,99137.69
2023-12-11T15:29:37.749Z,99132.59
2023-12-11T15:32:06.065Z,99127.56
2023-12-11T15:34:33.056Z,99113.84
2023-12-11T15:37:00.129Z,99115.69
2023-12-11T15:39:26.910Z,99106.50
2023-12-11T15:41:53.572Z,99110.84
2023-12-11T15:44:20.368Z,99112.56
2023-12-11T15:46:47.075Z,99113.16
2023-12-11T15:49:14.161Z,99109.97
2023-12-11T15:51:41.296Z,99109.97
2023-12-11T15:54:08.202Z,99108.94
2023-12-11T15:56:34.876Z,99108.06
2023-12-11T15:59:01.734Z,99113.09
2023-12-11T16:01:29.065Z,99106.50
2023-12-11T16:03:56.206Z,99111.44
2023-12-11T16:06:23.188Z,99107.16
2023-12-11T16:08:49.983Z,99108.75
2023-12-11T16:11:17.005Z,99108.56
2023-12-11T16:13:44.028Z,99093.28
2023-12-11T16:16:14.444Z,99090.69
2023-12-11T16:18:42.184Z,99087.31
2023-12-11T16:21:09.093Z,99083.94
2023-12-11T16:23:35.972Z,99083.25
2023-12-11T16:26:05.575Z,99078.91
2023-12-11T16:28:34.685Z,99073.03
2023-12-11T16:31:02.094Z,99088.00
2023-12-11T16:33:29.082Z,99104.53
2023-12-11T16:35:55.936Z,99104.53
2023-12-11T16:38:23.212Z,99088.78
2023-12-11T16:40:50.128Z,99098.66
2023-12-11T16:43:18.845Z,99094.28
2023-12-11T16:45:45.970Z,99081.84
2023-12-11T16:48:13.445Z,99079.41
2023-12-11T16:50:44.056Z,99077.50
2023-12-11T16:53:11.015Z,99080.00
2023-12-11T16:55:37.809Z,99075.97
2023-12-11T16:58:04.614Z,99072.66
2023-12-11T17:00:31.432Z,99075.09
2023-12-11T17:02:58.112Z,99080.59
2023-12-11T17:05:24.978Z,99064.41
2023-12-11T17:07:54.732Z,99069.31
2023-12-11T17:10:21.742Z,99060.66
2023-12-11T17:12:48.674Z,99063.53
2023-12-11T17:15:15.937Z,99058.66
2023-12-11T17:17:42.746Z,99051.06
2023-12-11T17:20:10.822Z,99057.66
2023-12-11T17:22:37.691Z,99063.28
2023-12-11T17:25:05.028Z,99062.22
2023-12-11T17:27:32.384Z,99056.31
2023-12-11T17:30:01.342Z,99051.28
2023-12-11T17:32:30.394Z,99054.56
2023-12-11T17:34:57.478Z,99042.81
2023-12-11T17:37:25.008Z,99043.66
2023-12-11T17:39:54.332Z,99037.97
2023-12-11T17:42:21.266Z,99059.78
2023-12-11T17:44:48.071Z,99067.91
2023-12-11T17:47:14.734Z,99055.16
2023-12-11T17:49:41.748Z,99065.31
2023-12-11T17:52:09.642Z,99066.94
2023-12-11T17:54:36.369Z,99085.56
2023-12-11T17:57:04.657Z,99085.03
2023-12-11T17:59:31.521Z,99080.00
2023-12-11T18:01:58.332Z,99090.13
2023-12-11T18:04:25.225Z,99085.03
2023-12-11T18:06:52.626Z,99073.41
2023-12-11T18:09:19.369Z,99070.81
2023-12-11T18:11:46.082Z,99073.25
2023-12-11T18:14:12.782Z,99064.88
2023-12-11T18:16:39.511Z,99069.19
2023-12-11T18:19:06.388Z,99054.81
2023-12-11T18:21:33.138Z,99054.22
2023-12-11T18:23:59.846Z,99061.84
2023-12-11T18:26:26.644Z,99060.13
2023-12-11T18:28:53.397Z,99069.19
2023-12-11T18:31:20.162Z,99052.38
2023-12-11T18:33:47.221Z,99051.78
2023-12-11T18:36:13.993Z,99053.44
2023-12-11T18:38:40.779Z,99049.38
2023-12-11T18:41:07.839Z,99054.38
2023-12-11T18:43:36.968Z,99054.50
2023-12-11T18:46:03.945Z,99047.91
2023-12-11T18:48:30.851Z,99040.47
2023-12-11T18:50:57.588Z,99036.41
2023-12-11T18:53:24.296Z,99034.00
2023-12-11T18:56:00.390Z,99038.16
2023-12-11T18:58:27.509Z,99038.25
2023-12-11T19:00:54.426Z,99038.16
2023-12-11T19:03:21.223Z,99029.06
2023-12-11T19:05:47.973Z,99024.03
2023-12-11T19:08:14.697Z,99025.06
2023-12-11T19:10:41.397Z,99031.75
2023-12-11T19:13:08.083Z,99043.53
2023-12-11T19:15:34.839Z,99039.09
2023-12-11T19:18:01.593Z,99034.16
2023-12-11T19:20:28.310Z,99036.59
2023-12-11T19:22:55.129Z,99027.22
2023-12-11T19:25:21.873Z,99033.13
2023-12-11T19:27:48.979Z,99039.69
2023-12-11T19:30:15.781Z,99037.97
2023-12-11T19:32:42.543Z,99038.56
2023-12-11T19:35:09.432Z,99037.78
2023-12-11T19:37:36.510Z,99042.63
2023-12-11T19:40:04.523Z,99029.59
2023-12-11T19:42:31.298Z,99039.84
2023-12-11T19:44:58.005Z,99037.25
2023-12-11T19:47:25.284Z,99036.34
2023-12-11T19:49:52.203Z,99035.22
2023-12-11T19:52:19.113Z,99045.25
2023-12-11T19:54:46.539Z,99038.31
2023-12-11T19:57:13.298Z,99027.59
2023-12-11T19:59:40.061Z,99030.13
2023-12-11T20:02:09.358Z,99021.41
2023-12-11T20:04:37.444Z,99016.25
2023-12-11T20:07:04.834Z,99017.78
2023-12-11T20:09:33.765Z,99016.13
2023-12-11T20:12:10.747Z,99015.28
2023-12-11T20:14:40.995Z,99029.19
2023-12-11T20:17:07.693Z,99029.88
2023-12-11T20:19:34.542Z,99018.28
2023-12-11T20:22:02.251Z,99019.16
2023-12-11T20:24:29.169Z,99015.88
2023-12-11T20:26:55.887Z,99008.34
2023-12-11T20:29:22.708Z,99017.59
2023-12-11T20:31:49.474Z,99010.84
2023-12-11T20:34:17.617Z,99014.47
2023-12-11T20:36:44.615Z,99007.75
2023-12-11T20:39:11.602Z,98998.28
2023-12-11T20:41:38.277Z,99003.38
2023-12-11T20:44:05.012Z,99016.06
2023-12-11T20:46:32.763Z,99010.84
2023-12-11T20:49:00.484Z,99002.53
2023-12-11T20:51:30.291Z,99001.00
2023-12-11T20:53:56.954Z,99007.53
2023-12-11T20:56:25.796Z,98999.16
2023-12-11T20:58:54.531Z,98993.47
2023-12-11T21:01:34.806Z,99001.19
2023-12-11T21:04:04.565Z,98998.56
2023-12-11T21:06:32.789Z,98997.69
2023-12-11T21:09:07.083Z,98990.75
2023-12-11T21:11:35.356Z,98989.22
2023-12-11T21:14:02.371Z,98983.31
2023-12-11T21:16:29.167Z,98987.38
2023-12-11T21:18:56.167Z,98991.63
2023-12-11T21:21:24.112Z,98986.59
2023-12-11T21:23:51.263Z,98980.81
2023-12-11T21:26:25.783Z,98985.94
2023-12-11T21:28:54.629Z,98978.81
2023-12-11T21:31:27.339Z,98987.38
2023-12-11T21:33:55.325Z,98991.53
2023-12-11T21:36:28.671Z,98988.31
2023-12-11T21:38:55.708Z,98988.19
2023-12-11T21:41:22.388Z,98989.03
2023-12-11T21:43:50.764Z,98993.94
2023-12-11T21:46:18.486Z,98992.41
2023-12-11T21:48:46.236Z,98987.31
2023-12-11T21:51:17.537Z,98978.81
2023-12-11T21:53:44.900Z,98982.09
2023-12-11T21:56:12.006Z,98978.81
2023-12-11T21:58:38.996Z,98973.72
2023-12-11T22:01:05.943Z,98981.41
2023-12-11T22:03:32.923Z,98989.63
2023-12-11T22:05:59.743Z,98976.22
2023-12-11T22:08:26.474Z,98969.28
2023-12-11T22:10:53.247Z,98970.16
2023-12-11T22:13:19.976Z,98976.22
2023-12-11T22:15:46.856Z,98976.03
2023-12-11T22:18:14.304Z,98976.03
2023-12-11T22:20:42.042Z,98980.19
2023-12-11T22:23:08.977Z,98973.41
2023-12-11T22:25:35.718Z,98975.06
2023-12-11T22:28:03.377Z,98970.03
2023-12-11T22:30:30.450Z,98966.00
2023-12-11T22:32:57.529Z,98961.84
2023-12-11T22:35:24.261Z,98972.06
2023-12-11T22:37:50.937Z,98975.44
2023-12-11T22:40:18.255Z,98975.16
2023-12-11T22:42:45.182Z,98982.44
2023-12-11T22:45:12.858Z,98972.00
2023-12-11T22:47:39.697Z,98971.94
2023-12-11T22:50:07.214Z,98975.31
2023-12-11T22:52:33.985Z,98978.75
2023-12-11T22:55:00.748Z,98976.94
2023-12-11T22:57:28.015Z,98969.41
2023-12-11T22:59:54.733Z,98967.66
2023-12-11T23:02:21.459Z,98960.31
2023-12-11T23:04:48.513Z,98970.34
2023-12-11T23:07:15.429Z,98970.28
2023-12-11T23:09:42.202Z,98961.19
2023-12-11T23:12:08.954Z,98959.38
2023-12-11T23:14:35.699Z,98952.78
2023-12-11T23:17:03.075Z,98953.66
2023-12-11T23:19:29.977Z,98954.72
2023-12-11T23:21:56.765Z,98964.25
2023-12-11T23:24:23.504Z,98963.03
2023-12-11T23:26:50.225Z,98967.25
2023-12-11T23:29:17.012Z,98956.28
2023-12-11T23:31:43.837Z,98955.50
2023-12-11T23:34:10.644Z,98959.91
2023-12-11T23:36:37.440Z,98959.06
2023-12-11T23:39:04.155Z,98958.19
2023-12-11T23:41:31.582Z,98951.25
2023-12-11T23:43:58.256Z,98947.78
2023-12-11T23:46:25.104Z,98956.94
2023-12-11T23:48:52.213Z,98950.88
2023-12-11T23:51:19.130Z,98949.34
2023-12-11T23:53:46.102Z,98947.78
2023-12-11T23:56:13.048Z,98945.19
2023-12-11T23:58:39.825Z,98951.06
